Time,TemperatureF,DewpointF,PressureIn,WindDirection,WindDirectionDegrees,WindSpeedMPH,WindSpeedGustMPH,Humidity,HourlyPrecipIn,Conditions,Clouds,dailyrainin,SoftwareType,DateUTC
2015-01-26 00:03:00,32.0,24.6,30.14,East,90,0.0,0.0,74,0.00,CLR,SKC,0.00,WeatherDisplay:10.37,2015-01-26 07:03:00,
2015-01-26 00:08:00,32.5,25.2,30.14,South,180,0.0,0.0,74,0.00,CLR,SKC,0.00,WeatherDisplay:10.37,2015-01-26 07:08:00,
2015-01-26 00:13:00,31.8,24.8,30.14,North,0,0.0,0.0,75,0.00,CLR,SKC,0.00,WeatherDisplay:10.37,2015-01-26 07:13:00,
2015-01-26 00:18:00,32.2,24.8,30.14,West,270,0.0,0.0,74,0.00,CLR,SKC,0.00,WeatherDisplay:10.37,2015-01-26 07:18:00,
2015-01-26 00:23:00,32.0,24.6,30.14,East,90,0.0,0.0,74,0.00,CLR,SKC,0.00,WeatherDisplay:10.37,2015-01-26 07:23:00,
2015-01-26 00:28:00,30.2,22.9,30.15,East,90,0.0,0.0,74,0.00,CLR,SKC,0.00,WeatherDisplay:10.37,2015-01-26 07:28:00,
2015-01-26 00:33:00,30.6,23.6,30.14,NW,315,0.0,0.0,75,0.00,CLR,SKC,0.00,WeatherDisplay:10.37,2015-01-26 07:33:00,
2015-01-26 00:38:00,31.5,24.4,30.14,West,270,0.0,0.0,75,0.00,CLR,SKC,0.00,WeatherDisplay:10.37,2015-01-26 07:38:00,
2015-01-26 00:43:00,31.8,24.8,30.15,North,0,0.0,0.0,75,0.00,CLR,SKC,0.00,WeatherDisplay:10.37,2015-01-26 07:43:00,
2015-01-26 00:48:00,31.6,24.6,30.14,North,0,0.0,0.0,75,0.00,CLR,SKC,0.00,WeatherDisplay:10.37,2015-01-26 07:48:00,
2015-01-26 00:53:00,31.3,24.0,30.14,North,0,0.0,0.0,74,0.00,CLR,SKC,0.00,WeatherDisplay:10.37,2015-01-26 07:53:00,
2015-01-26 00:58:00,32.4,25.0,30.15,NW,315,0.0,0.0,74,0.00,CLR,SKC,0.00,WeatherDisplay:10.37,2015-01-26 07:58:00,
2015-01-26 01:03:00,33.1,25.7,30.14,North,0,0.0,0.0,74,0.00,CLR,SKC,0.00,WeatherDisplay:10.37,2015-01-26 08:03:00,
2015-01-26 01:08:00,31.3,24.0,30.14,East,90,0.0,0.0,74,0.00,CLR,SKC,0.00,WeatherDisplay:10.37,2015-01-26 08:08:00,
2015-01-26 01:13:00,31.6,24.3,30.14,East,90,0.0,0.0,74,0.00,CLR,SKC,0.00,WeatherDisplay:10.37,2015-01-26 08:13:00,
2015-01-26 01:18:00,31.1,23.8,30.14,East,90,0.0,0.0,74,0.00,CLR,SKC,0.00,WeatherDisplay:10.37,2015-01-26 08:18:00,
2015-01-26 01:23:00,32.2,24.8,30.14,East,90,0.0,0.0,74,0.00,CLR,SKC,0.00,WeatherDisplay:10.37,2015-01-26 08:23:00,
2015-01-26 01:28:00,32.4,25.0,30.14,North,0,0.0,0.0,74,0.00,CLR,SKC,0.00,WeatherDisplay:10.37,2015-01-26 08:28:00,
2015-01-26 01:33:00,31.1,23.8,30.14,North,0,0.0,0.0,74,0.00,CLR,SKC,0.00,WeatherDisplay:10.37,2015-01-26 08:33:00,
2015-01-26 01:38:00,28.8,21.8,30.15,North,0,0.0,0.0,75,0.00,CLR,SKC,0.00,WeatherDisplay:10.37,2015-01-26 08:38:00,
2015-01-26 01:43:00,29.7,23.0,30.15,North,0,0.0,0.0,76,0.00,CLR,SKC,0.00,WeatherDisplay:10.37,2015-01-26 08:43:00,
2015-01-26 01:48:00,30.0,23.7,30.15,North,0,0.0,0.0,77,0.00,CLR,SKC,0.00,WeatherDisplay:10.37,2015-01-26 08:48:00,
2015-01-26 01:53:00,29.7,23.3,30.15,North,0,0.0,0.0,77,0.00,CLR,SKC,0.00,WeatherDisplay:10.37,2015-01-26 08:53:00,
2015-01-26 01:58:00,30.4,24.0,30.14,North,0,0.0,0.0,77,0.00,CLR,SKC,0.00,WeatherDisplay:10.37,2015-01-26 08:58:00,
2015-01-26 02:03:00,29.8,23.5,30.15,North,0,0.0,0.0,77,0.00,CLR,SKC,0.00,WeatherDisplay:10.37,2015-01-26 09:03:00,
2015-01-26 02:08:00,29.8,23.5,30.15,North,0,0.0,0.0,77,0.00,CLR,SKC,0.00,WeatherDisplay:10.37,2015-01-26 09:08:00,
2015-01-26 02:13:00,29.8,23.5,30.15,North,0,0.0,0.0,77,0.00,CLR,SKC,0.00,WeatherDisplay:10.37,2015-01-26 09:13:00,
2015-01-26 02:18:00,30.4,24.0,30.15,NE,45,0.0,0.0,77,0.00,CLR,SKC,0.00,WeatherDisplay:10.37,2015-01-26 09:18:00,
2015-01-26 02:23:00,30.0,23.7,30.15,North,0,0.0,0.0,77,0.00,CLR,SKC,0.00,WeatherDisplay:10.37,2015-01-26 09:23:00,
2015-01-26 02:28:00,31.5,25.1,30.15,North,0,0.0,0.0,77,0.00,CLR,SKC,0.00,WeatherDisplay:10.37,2015-01-26 09:28:00,
2015-01-26 02:33:00,30.9,24.2,30.16,NE,45,0.0,0.0,76,0.00,CLR,SKC,0.00,WeatherDisplay:10.37,2015-01-26 09:33:00,
2015-01-26 02:38:00,30.0,23.7,30.16,North,0,0.0,0.0,77,0.00,CLR,SKC,0.00,WeatherDisplay:10.37,2015-01-26 09:38:00,
2015-01-26 02:43:00,32.4,25.6,30.16,North,0,0.0,0.0,76,0.00,CLR,SKC,0.00,WeatherDisplay:10.37,2015-01-26 09:43:00,
2015-01-26 02:48:00,31.1,24.4,30.16,North,0,0.0,0.0,76,0.00,CLR,SKC,0.00,WeatherDisplay:10.37,2015-01-26 09:48:00,
2015-01-26 02:53:00,29.8,23.5,30.16,North,0,0.0,0.0,77,0.00,CLR,SKC,0.00,WeatherDisplay:10.37,2015-01-26 09:53:00,
2015-01-26 02:58:00,30.2,23.9,30.16,North,0,0.0,0.0,77,0.00,CLR,SKC,0.00,WeatherDisplay:10.37,2015-01-26 09:58:00,
2015-01-26 03:03:00,30.0,24.0,30.15,North,0,0.0,0.0,78,0.00,CLR,SKC,0.00,WeatherDisplay:10.37,2015-01-26 10:03:00,
2015-01-26 03:08:00,31.3,25.2,30.16,North,0,0.0,0.0,78,0.00,CLR,SKC,0.00,WeatherDisplay:10.37,2015-01-26 10:08:00,
2015-01-26 03:13:00,30.6,23.9,30.15,North,0,0.0,0.0,76,0.00,CLR,SKC,0.00,WeatherDisplay:10.37,2015-01-26 10:13:00,
2015-01-26 03:18:00,30.2,23.9,30.15,North,0,0.0,0.0,77,0.00,CLR,SKC,0.00,WeatherDisplay:10.37,2015-01-26 10:18:00,
2015-01-26 03:23:00,31.1,24.7,30.15,North,0,0.0,0.0,77,0.00,CLR,SKC,0.00,WeatherDisplay:10.37,2015-01-26 10:23:00,
2015-01-26 03:28:00,29.7,23.3,30.15,NE,45,0.0,0.0,77,0.00,CLR,SKC,0.00,WeatherDisplay:10.37,2015-01-26 10:28:00,
2015-01-26 03:33:00,30.0,24.0,30.15,North,0,0.0,0.0,78,0.00,CLR,SKC,0.00,WeatherDisplay:10.37,2015-01-26 10:33:00,
2015-01-26 03:38:00,30.2,23.9,30.15,North,0,0.0,0.0,77,0.00,CLR,SKC,0.00,WeatherDisplay:10.37,2015-01-26 10:38:00,
2015-01-26 03:43:00,30.4,24.0,30.15,North,0,0.0,0.0,77,0.00,CLR,SKC,0.00,WeatherDisplay:10.37,2015-01-26 10:43:00,
2015-01-26 03:48:00,30.7,24.4,30.15,North,0,0.0,0.0,77,0.00,CLR,SKC,0.00,WeatherDisplay:10.37,2015-01-26 10:48:00,
2015-01-26 03:53:00,30.4,24.0,30.15,North,0,0.0,0.0,77,0.00,CLR,SKC,0.00,WeatherDisplay:10.37,2015-01-26 10:53:00,
2015-01-26 03:58:00,30.7,24.4,30.15,North,0,0.0,0.0,77,0.00,CLR,SKC,0.00,WeatherDisplay:10.37,2015-01-26 10:58:00,
2015-01-26 04:03:00,29.8,23.5,30.15,North,0,0.0,0.0,77,0.00,CLR,SKC,0.00,WeatherDisplay:10.37,2015-01-26 11:03:00,
2015-01-26 04:08:00,29.7,23.3,30.15,North,0,0.0,0.0,77,0.00,CLR,SKC,0.00,WeatherDisplay:10.37,2015-01-26 11:08:00,
2015-01-26 04:13:00,29.5,23.5,30.15,North,0,0.0,0.0,78,0.00,CLR,SKC,0.00,WeatherDisplay:10.37,2015-01-26 11:13:00,
2015-01-26 04:18:00,29.3,23.3,30.15,West,270,0.0,0.0,78,0.00,CLR,SKC,0.00,WeatherDisplay:10.37,2015-01-26 11:18:00,
2015-01-26 04:23:00,28.8,22.5,30.15,West,270,0.0,0.0,77,0.00,CLR,SKC,0.00,WeatherDisplay:10.37,2015-01-26 11:23:00,
2015-01-26 04:28:00,28.4,22.4,30.15,East,90,0.0,0.0,78,0.00,CLR,SKC,0.00,WeatherDisplay:10.37,2015-01-26 11:28:00,
2015-01-26 04:34:00,27.7,20.5,30.14,NE,45,0.0,0.0,74,0.00,CLR,SKC,0.00,WeatherDisplay:10.37,2015-01-26 11:34:00,
2015-01-26 04:39:00,26.8,19.6,30.15,North,0,0.0,0.0,74,0.00,CLR,SKC,0.00,WeatherDisplay:10.37,2015-01-26 11:39:00,
2015-01-26 04:44:00,26.4,19.9,30.14,West,270,0.0,0.0,76,0.00,CLR,SKC,0.00,WeatherDisplay:10.37,2015-01-26 11:44:00,
2015-01-26 04:49:00,28.2,21.9,30.14,East,90,0.0,0.0,77,0.00,CLR,SKC,0.00,WeatherDisplay:10.37,2015-01-26 11:49:00,
2015-01-26 04:54:00,26.2,20.3,30.15,North,0,0.0,0.0,78,0.00,CLR,SKC,0.00,WeatherDisplay:10.37,2015-01-26 11:54:00,
2015-01-26 04:59:00,27.9,21.9,30.14,North,0,0.0,0.0,78,0.00,CLR,SKC,0.00,WeatherDisplay:10.37,2015-01-26 11:59:00,
2015-01-26 05:04:00,28.0,22.1,30.15,North,0,0.0,0.0,78,0.00,CLR,SKC,0.00,WeatherDisplay:10.37,2015-01-26 12:04:00,
2015-01-26 05:09:00,26.4,20.5,30.15,West,270,0.0,0.0,78,0.00,CLR,SKC,0.00,WeatherDisplay:10.37,2015-01-26 12:09:00,
2015-01-26 05:14:00,26.6,20.4,30.15,East,90,0.0,0.0,77,0.00,CLR,SKC,0.00,WeatherDisplay:10.37,2015-01-26 12:14:00,
2015-01-26 05:19:00,27.5,21.5,30.15,West,270,0.0,0.0,78,0.00,CLR,SKC,0.00,WeatherDisplay:10.37,2015-01-26 12:19:00,
2015-01-26 05:24:00,25.9,20.0,30.15,SW,225,0.0,0.0,78,0.00,CLR,SKC,0.00,WeatherDisplay:10.37,2015-01-26 12:24:00,
2015-01-26 05:29:00,26.2,20.6,30.15,West,270,0.0,0.0,79,0.00,CLR,SKC,0.00,WeatherDisplay:10.37,2015-01-26 12:29:00,
2015-01-26 05:34:00,25.0,18.8,30.15,West,270,0.0,0.0,77,0.00,CLR,SKC,0.00,WeatherDisplay:10.37,2015-01-26 12:34:00,
2015-01-26 05:39:00,26.8,20.5,30.15,East,90,0.0,0.0,77,0.00,CLR,SKC,0.00,WeatherDisplay:10.37,2015-01-26 12:39:00,
2015-01-26 05:44:00,26.8,21.1,30.15,North,0,0.0,0.0,79,0.00,CLR,SKC,0.00,WeatherDisplay:10.37,2015-01-26 12:44:00,
2015-01-26 05:49:00,26.8,21.4,30.15,North,0,0.0,0.0,80,0.00,CLR,SKC,0.00,WeatherDisplay:10.37,2015-01-26 12:49:00,
2015-01-26 05:54:00,28.0,22.7,30.16,North,0,0.0,0.0,80,0.00,CLR,SKC,0.00,WeatherDisplay:10.37,2015-01-26 12:54:00,
2015-01-26 05:59:00,26.8,21.1,30.16,North,0,0.0,0.0,79,0.00,CLR,SKC,0.00,WeatherDisplay:10.37,2015-01-26 12:59:00,
2015-01-26 06:04:00,27.3,21.7,30.16,North,0,0.0,0.0,79,0.00,CLR,SKC,0.00,WeatherDisplay:10.37,2015-01-26 13:04:00,
2015-01-26 06:09:00,27.1,21.5,30.16,North,0,0.0,0.0,79,0.00,CLR,SKC,0.00,WeatherDisplay:10.37,2015-01-26 13:09:00,
2015-01-26 06:14:00,26.2,20.6,30.16,East,90,0.0,0.0,79,0.00,CLR,SKC,0.00,WeatherDisplay:10.37,2015-01-26 13:14:00,
2015-01-26 06:19:00,25.7,20.1,30.16,SW,225,0.0,0.0,79,0.00,CLR,SKC,0.00,WeatherDisplay:10.37,2015-01-26 13:19:00,
2015-01-26 06:24:00,26.8,21.1,30.16,West,270,0.0,0.0,79,0.00,CLR,SKC,0.00,WeatherDisplay:10.37,2015-01-26 13:24:00,
2015-01-26 06:29:00,25.5,20.2,30.16,West,270,0.0,0.0,80,0.00,CLR,SKC,0.00,WeatherDisplay:10.37,2015-01-26 13:29:00,
2015-01-26 06:34:00,27.0,21.6,30.16,West,270,0.0,0.0,80,0.00,CLR,SKC,0.00,WeatherDisplay:10.37,2015-01-26 13:34:00,
2015-01-26 06:39:00,26.1,21.0,30.16,West,270,0.0,0.0,81,0.00,CLR,SKC,0.00,WeatherDisplay:10.37,2015-01-26 13:39:00,
2015-01-26 06:44:00,26.2,21.2,30.16,West,270,0.0,0.0,81,0.00,CLR,SKC,0.00,WeatherDisplay:10.37,2015-01-26 13:44:00,
2015-01-26 06:49:00,26.4,21.7,30.17,West,270,0.0,0.0,82,0.00,CLR,SKC,0.00,WeatherDisplay:10.37,2015-01-26 13:49:00,
2015-01-26 06:54:00,26.1,21.3,30.17,South,180,0.0,0.0,82,0.00,CLR,SKC,0.00,WeatherDisplay:10.37,2015-01-26 13:54:00,
2015-01-26 06:59:00,25.5,20.5,30.16,SW,225,0.0,0.0,81,0.00,CLR,SKC,0.00,WeatherDisplay:10.37,2015-01-26 13:59:00,
2015-01-26 07:04:00,23.5,18.6,30.17,South,180,0.0,0.0,81,0.00,CLR,SKC,0.00,WeatherDisplay:10.37,2015-01-26 14:04:00,
2015-01-26 07:09:00,24.6,19.6,30.17,NW,315,0.0,0.0,81,0.00,CLR,SKC,0.00,WeatherDisplay:10.37,2015-01-26 14:09:00,
2015-01-26 07:14:00,25.0,20.0,30.16,West,270,0.0,0.0,81,0.00,CLR,SKC,0.00,WeatherDisplay:10.37,2015-01-26 14:14:00,
2015-01-26 07:19:00,26.8,21.7,30.16,West,270,0.0,0.0,81,0.00,CLR,SKC,0.00,WeatherDisplay:10.37,2015-01-26 14:19:00,
2015-01-26 07:24:00,26.8,21.7,30.16,West,270,0.0,0.0,81,0.00,CLR,SKC,0.00,WeatherDisplay:10.37,2015-01-26 14:24:00,
2015-01-26 07:29:00,27.7,22.6,30.16,North,0,0.0,0.0,81,0.00,CLR,SKC,0.00,WeatherDisplay:10.37,2015-01-26 14:29:00,
2015-01-26 07:34:00,25.7,21.0,30.17,North,0,0.0,0.0,82,0.00,CLR,SKC,0.00,WeatherDisplay:10.37,2015-01-26 14:34:00,
2015-01-26 07:39:00,28.0,23.0,30.16,North,0,0.0,0.0,81,0.00,CLR,SKC,0.00,WeatherDisplay:10.37,2015-01-26 14:39:00,
2015-01-26 07:44:00,28.6,24.6,30.16,North,0,0.0,0.0,85,0.00,CLR,SKC,0.00,WeatherDisplay:10.37,2015-01-26 14:44:00,
2015-01-26 07:49:00,28.8,24.5,30.17,North,0,0.0,0.0,84,0.00,CLR,SKC,0.00,WeatherDisplay:10.37,2015-01-26 14:49:00,
2015-01-26 07:54:00,29.3,25.1,30.16,East,90,0.0,0.0,84,0.00,CLR,SKC,0.00,WeatherDisplay:10.37,2015-01-26 14:54:00,
2015-01-26 07:59:00,28.9,24.4,30.17,North,0,0.0,0.0,83,0.00,CLR,SKC,0.00,WeatherDisplay:10.37,2015-01-26 14:59:00,
2015-01-26 08:04:00,30.0,25.5,30.17,East,90,0.0,0.0,83,0.00,CLR,SKC,0.00,WeatherDisplay:10.37,2015-01-26 15:04:00,
2015-01-26 08:09:00,30.4,25.2,30.17,North,0,0.0,0.0,81,0.00,CLR,SKC,0.00,WeatherDisplay:10.37,2015-01-26 15:09:00,
2015-01-26 08:14:00,32.2,26.7,30.17,East,90,0.0,0.0,80,0.00,CLR,SKC,0.00,WeatherDisplay:10.37,2015-01-26 15:14:00,
2015-01-26 08:19:00,32.7,26.9,30.17,North,0,0.0,0.0,79,0.00,CLR,SKC,0.00,WeatherDisplay:10.37,2015-01-26 15:19:00,
2015-01-26 08:24:00,32.0,25.9,30.16,North,0,0.0,0.0,78,0.00,CLR,SKC,0.00,WeatherDisplay:10.37,2015-01-26 15:24:00,
2015-01-26 08:29:00,33.6,27.5,30.17,North,0,0.0,0.0,78,0.00,CLR,SKC,0.00,WeatherDisplay:10.37,2015-01-26 15:29:00,
2015-01-26 08:34:00,34.7,28.2,30.16,East,90,0.0,0.0,77,0.00,CLR,SKC,0.00,WeatherDisplay:10.37,2015-01-26 15:34:00,
2015-01-26 08:39:00,34.3,27.2,30.17,North,0,0.0,0.0,75,0.00,CLR,SKC,0.00,WeatherDisplay:10.37,2015-01-26 15:39:00,
2015-01-26 08:44:00,34.0,26.9,30.16,North,0,0.0,0.0,75,0.00,CLR,SKC,0.00,WeatherDisplay:10.37,2015-01-26 15:44:00,
2015-01-26 08:49:00,33.4,26.7,30.16,NE,45,0.0,0.0,76,0.00,CLR,SKC,0.00,WeatherDisplay:10.37,2015-01-26 15:49:00,
2015-01-26 08:54:00,33.1,26.7,30.16,NE,45,0.0,0.0,77,0.00,CLR,SKC,0.00,WeatherDisplay:10.37,2015-01-26 15:54:00,
2015-01-26 08:59:00,32.9,26.5,30.16,North,0,0.0,0.0,77,0.00,CLR,SKC,0.00,WeatherDisplay:10.37,2015-01-26 15:59:00,
2015-01-26 09:04:00,32.9,26.5,30.16,NE,45,0.0,0.0,77,0.00,CLR,SKC,0.00,WeatherDisplay:10.37,2015-01-26 16:04:00,
2015-01-26 09:09:00,32.7,26.6,30.16,North,0,0.0,0.0,78,0.00,CLR,SKC,0.00,WeatherDisplay:10.37,2015-01-26 16:09:00,
2015-01-26 09:14:00,32.5,26.4,30.16,North,0,0.0,0.0,78,0.00,CLR,SKC,0.00,WeatherDisplay:10.37,2015-01-26 16:14:00,
2015-01-26 09:19:00,32.7,26.6,30.16,North,0,0.0,0.0,78,0.00,CLR,SKC,0.00,WeatherDisplay:10.37,2015-01-26 16:19:00,
2015-01-26 09:24:00,33.1,27.3,30.16,North,0,0.0,0.0,79,0.00,CLR,SKC,0.00,WeatherDisplay:10.37,2015-01-26 16:24:00,
2015-01-26 09:29:00,33.3,27.1,30.16,North,0,0.0,0.0,78,0.00,CLR,SKC,0.00,WeatherDisplay:10.37,2015-01-26 16:29:00,
2015-01-26 09:34:00,33.6,27.5,30.16,North,0,0.0,0.0,78,0.00,CLR,SKC,0.00,WeatherDisplay:10.37,2015-01-26 16:34:00,
2015-01-26 09:39:00,33.8,27.4,30.16,North,0,0.0,0.0,77,0.00,CLR,SKC,0.00,WeatherDisplay:10.37,2015-01-26 16:39:00,
2015-01-26 09:44:00,34.3,27.9,30.16,North,0,0.0,0.0,77,0.00,CLR,SKC,0.00,WeatherDisplay:10.37,2015-01-26 16:44:00,
2015-01-26 09:49:00,34.3,27.6,30.16,NE,45,0.0,0.0,76,0.00,CLR,SKC,0.00,WeatherDisplay:10.37,2015-01-26 16:49:00,
2015-01-26 09:54:00,34.3,27.6,30.16,North,0,0.0,0.0,76,0.00,CLR,SKC,0.00,WeatherDisplay:10.37,2015-01-26 16:54:00,
2015-01-26 09:59:00,34.3,27.2,30.16,North,0,0.0,0.0,75,0.00,CLR,SKC,0.00,WeatherDisplay:10.37,2015-01-26 16:59:00,
2015-01-26 10:04:00,34.0,26.9,30.17,NE,45,0.0,0.0,75,0.00,CLR,SKC,0.00,WeatherDisplay:10.37,2015-01-26 17:04:00,
2015-01-26 10:09:00,33.8,26.4,30.17,North,0,0.0,0.0,74,0.00,CLR,SKC,0.00,WeatherDisplay:10.37,2015-01-26 17:09:00,
2015-01-26 10:14:00,34.0,26.6,30.18,North,0,0.0,0.0,74,0.00,CLR,SKC,0.00,WeatherDisplay:10.37,2015-01-26 17:14:00,
2015-01-26 10:20:00,33.8,26.1,30.17,North,0,0.0,0.0,73,0.00,CLR,SKC,0.00,WeatherDisplay:10.37,2015-01-26 17:20:00,
2015-01-26 10:25:00,34.3,26.9,30.17,East,90,0.0,0.0,74,0.00,CLR,SKC,0.00,WeatherDisplay:10.37,2015-01-26 17:25:00,
2015-01-26 10:30:00,34.3,26.6,30.17,East,90,0.0,0.0,73,0.00,CLR,SKC,0.00,WeatherDisplay:10.37,2015-01-26 17:30:00,
2015-01-26 10:35:00,34.3,26.6,30.17,North,0,0.0,0.0,73,0.00,CLR,SKC,0.00,WeatherDisplay:10.37,2015-01-26 17:35:00,
2015-01-26 10:40:00,34.3,26.6,30.18,North,0,0.0,0.0,73,0.00,CLR,SKC,0.00,WeatherDisplay:10.37,2015-01-26 17:40:00,
2015-01-26 10:45:00,34.5,26.8,30.17,NE,45,0.0,0.0,73,0.00,CLR,SKC,0.00,WeatherDisplay:10.37,2015-01-26 17:45:00,
2015-01-26 10:50:00,34.3,26.9,30.18,North,0,0.0,0.0,74,0.00,CLR,SKC,0.00,WeatherDisplay:10.37,2015-01-26 17:50:00,
2015-01-26 10:55:00,34.3,26.9,30.18,NE,45,0.0,0.0,74,0.00,CLR,SKC,0.00,WeatherDisplay:10.37,2015-01-26 17:55:00,
2015-01-26 11:00:00,34.7,27.3,30.18,North,0,0.0,0.0,74,0.00,CLR,SKC,0.00,WeatherDisplay:10.37,2015-01-26 18:00:00,
2015-01-26 11:05:00,34.7,27.3,30.17,North,0,0.0,0.0,74,0.00,CLR,SKC,0.00,WeatherDisplay:10.37,2015-01-26 18:05:00,
2015-01-26 11:10:00,35.2,27.4,30.17,North,0,0.0,0.0,73,0.00,CLR,SKC,0.00,WeatherDisplay:10.37,2015-01-26 18:10:00,
2015-01-26 11:15:00,35.6,27.5,30.17,East,90,0.0,0.0,72,0.00,CLR,SKC,0.00,WeatherDisplay:10.37,2015-01-26 18:15:00,
2015-01-26 11:20:00,35.8,27.6,30.17,North,0,0.0,0.0,72,0.00,CLR,SKC,0.00,WeatherDisplay:10.37,2015-01-26 18:20:00,
2015-01-26 11:25:00,35.6,27.5,30.17,NE,45,0.0,0.0,72,0.00,CLR,SKC,0.00,WeatherDisplay:10.37,2015-01-26 18:25:00,
2015-01-26 11:30:00,35.2,27.1,30.17,NE,45,0.0,0.0,72,0.00,CLR,SKC,0.00,WeatherDisplay:10.37,2015-01-26 18:30:00,
2015-01-26 11:35:00,35.4,27.3,30.17,NE,45,0.0,0.0,72,0.00,CLR,SKC,0.00,WeatherDisplay:10.37,2015-01-26 18:35:00,
2015-01-26 11:40:00,35.3,27.1,30.17,NE,42,0.0,0.0,72,0.00,CLR,SKC,0.00,WeatherDisplay:10.37,2015-01-26 18:40:00,
2015-01-26 11:45:00,35.4,27.3,30.17,NE,39,0.0,0.0,72,0.00,CLR,SKC,0.00,WeatherDisplay:10.37,2015-01-26 18:45:00,
2015-01-26 11:50:00,35.4,27.3,30.16,NE,45,0.0,0.0,72,0.00,CLR,SKC,0.00,WeatherDisplay:10.37,2015-01-26 18:50:00,
2015-01-26 11:55:00,35.6,27.1,30.16,NE,45,0.0,0.0,71,0.00,CLR,SKC,0.00,WeatherDisplay:10.37,2015-01-26 18:55:00,
2015-01-26 12:00:00,36.1,27.6,30.16,NE,45,0.0,0.0,71,0.00,CLR,SKC,0.00,WeatherDisplay:10.37,2015-01-26 19:00:00,
2015-01-26 12:05:00,36.5,28.0,30.16,North,0,0.0,0.0,71,0.00,CLR,SKC,0.00,WeatherDisplay:10.37,2015-01-26 19:05:00,
2015-01-26 12:10:00,37.1,28.5,30.16,NNE,32,0.0,0.0,71,0.00,CLR,SKC,0.00,WeatherDisplay:10.37,2015-01-26 19:10:00,
2015-01-26 12:15:00,37.4,29.6,30.15,NE,37,0.0,0.0,73,0.00,CLR,SKC,0.00,WeatherDisplay:10.37,2015-01-26 19:15:00,
2015-01-26 12:20:00,38.3,30.1,30.15,North,0,0.0,0.0,72,0.00,CLR,SKC,0.00,WeatherDisplay:10.37,2015-01-26 19:20:00,
2015-01-26 12:25:00,37.8,29.2,30.15,NNE,26,0.0,0.0,71,0.00,CLR,SKC,0.00,WeatherDisplay:10.37,2015-01-26 19:25:00,
2015-01-26 12:30:00,37.8,28.9,30.15,North,0,0.0,0.0,70,0.00,CLR,SKC,0.00,WeatherDisplay:10.37,2015-01-26 19:30:00,
2015-01-26 12:35:00,39.0,30.1,30.15,NE,45,0.0,0.0,70,0.00,CLR,SKC,0.00,WeatherDisplay:10.37,2015-01-26 19:35:00,
2015-01-26 12:40:00,38.8,29.5,30.14,NNE,27,0.0,1.0,69,0.00,CLR,SKC,0.00,WeatherDisplay:10.37,2015-01-26 19:40:00,
2015-01-26 12:45:00,39.4,29.7,30.14,North,0,1.2,0.0,68,0.00,CLR,SKC,0.00,WeatherDisplay:10.37,2015-01-26 19:45:00,
2015-01-26 12:50:00,39.7,29.7,30.14,North,0,1.2,0.0,67,0.00,CLR,SKC,0.00,WeatherDisplay:10.37,2015-01-26 19:50:00,
2015-01-26 12:55:00,40.1,30.0,30.14,North,0,5.8,0.0,67,0.00,CLR,SKC,0.00,WeatherDisplay:10.37,2015-01-26 19:55:00,
2015-01-26 13:00:00,40.5,30.4,30.13,NE,45,1.2,0.0,67,0.00,CLR,SKC,0.00,WeatherDisplay:10.37,2015-01-26 20:00:00,
2015-01-26 13:05:00,40.5,30.4,30.14,NE,45,1.2,0.0,67,0.00,CLR,SKC,0.00,WeatherDisplay:10.37,2015-01-26 20:05:00,
2015-01-26 13:10:00,40.8,30.0,30.13,NW,315,1.2,0.0,65,0.00,CLR,SKC,0.00,WeatherDisplay:10.37,2015-01-26 20:10:00,
2015-01-26 13:15:00,40.5,29.6,30.13,NE,45,0.0,0.0,65,0.00,CLR,SKC,0.00,WeatherDisplay:10.37,2015-01-26 20:15:00,
2015-01-26 13:20:00,39.7,29.3,30.13,East,90,1.2,0.0,66,0.00,CLR,SKC,0.00,WeatherDisplay:10.37,2015-01-26 20:20:00,
2015-01-26 13:25:00,41.2,30.3,30.12,East,90,0.0,0.0,65,0.00,CLR,SKC,0.00,WeatherDisplay:10.37,2015-01-26 20:25:00,
2015-01-26 13:30:00,39.9,29.1,30.13,North,0,0.0,0.0,65,0.00,CLR,SKC,0.00,WeatherDisplay:10.37,2015-01-26 20:30:00,
2015-01-26 13:35:00,40.1,29.6,30.12,NE,45,0.0,0.0,66,0.00,CLR,SKC,0.00,WeatherDisplay:10.37,2015-01-26 20:35:00,
2015-01-26 13:40:00,41.5,30.6,30.12,NE,45,0.0,0.0,65,0.00,CLR,SKC,0.00,WeatherDisplay:10.37,2015-01-26 20:40:00,
2015-01-26 13:45:00,40.6,29.8,30.12,North,0,0.0,0.0,65,0.00,CLR,SKC,0.00,WeatherDisplay:10.37,2015-01-26 20:45:00,
2015-01-26 13:50:00,40.5,29.6,30.12,NE,38,0.0,1.0,65,0.00,CLR,SKC,0.00,WeatherDisplay:10.37,2015-01-26 20:50:00,
2015-01-26 13:55:00,42.1,30.4,30.12,NE,37,0.0,0.0,63,0.00,CLR,SKC,0.00,WeatherDisplay:10.37,2015-01-26 20:55:00,
2015-01-26 14:00:00,43.2,30.6,30.12,NE,42,0.0,0.0,61,0.00,CLR,SKC,0.00,WeatherDisplay:10.37,2015-01-26 21:00:00,
2015-01-26 14:05:00,43.0,29.2,30.11,East,90,0.0,0.0,58,0.00,CLR,SKC,0.00,WeatherDisplay:10.37,2015-01-26 21:05:00,
2015-01-26 14:10:00,42.8,29.9,30.12,NE,45,0.0,0.0,60,0.00,CLR,SKC,0.00,WeatherDisplay:10.37,2015-01-26 21:10:00,
2015-01-26 14:15:00,45.0,30.6,30.11,NE,41,0.0,0.0,57,0.00,CLR,SKC,0.00,WeatherDisplay:10.37,2015-01-26 21:15:00,
2015-01-26 14:20:00,43.8,29.9,30.11,NNE,28,0.0,0.0,58,0.00,CLR,SKC,0.00,WeatherDisplay:10.37,2015-01-26 21:20:00,
2015-01-26 14:25:00,43.0,30.0,30.11,North,0,0.0,0.0,60,0.00,CLR,SKC,0.00,WeatherDisplay:10.37,2015-01-26 21:25:00,
2015-01-26 14:30:00,43.5,30.5,30.11,North,10,0.0,0.0,60,0.00,CLR,SKC,0.00,WeatherDisplay:10.37,2015-01-26 21:30:00,
2015-01-26 14:35:00,43.6,29.8,30.11,NNE,28,0.0,0.0,58,0.00,CLR,SKC,0.00,WeatherDisplay:10.37,2015-01-26 21:35:00,
2015-01-26 14:40:00,45.0,30.2,30.11,NE,45,0.0,0.0,56,0.00,CLR,SKC,0.00,WeatherDisplay:10.37,2015-01-26 21:40:00,
2015-01-26 14:45:00,45.2,30.4,30.11,NNE,25,0.0,0.0,56,0.00,CLR,SKC,0.00,WeatherDisplay:10.37,2015-01-26 21:45:00,
2015-01-26 14:50:00,43.3,28.7,30.11,North,0,0.0,0.0,56,0.00,CLR,SKC,0.00,WeatherDisplay:10.37,2015-01-26 21:50:00,
2015-01-26 14:55:00,44.2,30.0,30.11,North,0,0.0,0.0,57,0.00,CLR,SKC,0.00,WeatherDisplay:10.37,2015-01-26 21:55:00,
2015-01-26 15:00:00,44.0,30.1,30.11,NNE,24,0.0,0.0,58,0.00,CLR,SKC,0.00,WeatherDisplay:10.37,2015-01-26 22:00:00,
2015-01-26 15:05:00,43.7,29.9,30.11,NW,315,0.0,0.0,58,0.00,CLR,SKC,0.00,WeatherDisplay:10.37,2015-01-26 22:05:00,
2015-01-26 15:10:00,43.3,29.5,30.11,NNW,337,0.0,0.0,58,0.00,CLR,SKC,0.00,WeatherDisplay:10.37,2015-01-26 22:10:00,
2015-01-26 15:15:00,44.1,29.8,30.10,NE,45,0.0,0.0,57,0.00,CLR,SKC,0.00,WeatherDisplay:10.37,2015-01-26 22:15:00,
2015-01-26 15:20:00,43.9,29.6,30.10,NE,45,0.0,0.0,57,0.00,CLR,SKC,0.00,WeatherDisplay:10.37,2015-01-26 22:20:00,
2015-01-26 15:25:00,44.0,29.7,30.10,NNE,17,0.0,0.0,57,0.00,CLR,SKC,0.00,WeatherDisplay:10.37,2015-01-26 22:25:00,
2015-01-26 15:30:00,43.9,30.0,30.10,North,0,0.0,0.0,58,0.00,CLR,SKC,0.00,WeatherDisplay:10.37,2015-01-26 22:30:00,
2015-01-26 15:35:00,45.3,30.5,30.10,North,0,0.0,0.0,56,0.00,CLR,SKC,0.00,WeatherDisplay:10.37,2015-01-26 22:35:00,
2015-01-26 15:40:00,44.1,29.4,30.10,NNE,23,0.0,0.0,56,0.00,CLR,SKC,0.00,WeatherDisplay:10.37,2015-01-26 22:40:00,
2015-01-26 15:45:00,44.2,29.5,30.10,NNE,26,0.0,0.0,56,0.00,CLR,SKC,0.00,WeatherDisplay:10.37,2015-01-26 22:45:00,
2015-01-26 15:50:00,43.9,29.2,30.10,North,0,0.0,0.0,56,0.00,CLR,SKC,0.00,WeatherDisplay:10.37,2015-01-26 22:50:00,
2015-01-26 15:55:00,44.2,29.5,30.10,North,3,0.0,0.0,56,0.00,CLR,SKC,0.00,WeatherDisplay:10.37,2015-01-26 22:55:00,
2015-01-26 16:00:00,44.7,29.9,30.09,North,7,0.0,0.0,56,0.00,CLR,SKC,0.00,WeatherDisplay:10.37,2015-01-26 23:00:00,
2015-01-26 16:05:00,44.2,29.0,30.10,NNE,18,0.0,0.0,55,0.00,CLR,SKC,0.00,WeatherDisplay:10.37,2015-01-26 23:05:00,
2015-01-26 16:10:00,44.6,29.4,30.10,North,0,0.0,0.0,55,0.00,CLR,SKC,0.00,WeatherDisplay:10.37,2015-01-26 23:10:00,
2015-01-26 16:15:00,44.6,29.4,30.10,NE,45,0.0,0.0,55,0.00,CLR,SKC,0.00,WeatherDisplay:10.37,2015-01-26 23:15:00,
2015-01-26 16:20:00,44.2,29.1,30.10,East,90,0.0,0.0,55,0.00,CLR,SKC,0.00,WeatherDisplay:10.37,2015-01-26 23:20:00,
2015-01-26 16:25:00,43.6,29.0,30.10,NE,35,0.0,0.0,56,0.00,CLR,SKC,0.00,WeatherDisplay:10.37,2015-01-26 23:25:00,
2015-01-26 16:30:00,44.4,29.2,30.10,East,90,0.0,0.0,55,0.00,CLR,SKC,0.00,WeatherDisplay:10.37,2015-01-26 23:30:00,
2015-01-26 16:35:00,43.7,28.1,30.10,North,0,0.0,0.0,54,0.00,CLR,SKC,0.00,WeatherDisplay:10.37,2015-01-26 23:35:00,
2015-01-26 16:40:00,43.2,28.1,30.09,North,7,0.0,0.0,55,0.00,CLR,SKC,0.00,WeatherDisplay:10.37,2015-01-26 23:40:00,
2015-01-26 16:45:00,43.0,28.3,30.10,North,0,0.0,0.0,56,0.00,CLR,SKC,0.00,WeatherDisplay:10.37,2015-01-26 23:45:00,
2015-01-26 16:50:00,42.6,28.4,30.10,NNE,33,0.0,0.0,57,0.00,CLR,SKC,0.00,WeatherDisplay:10.37,2015-01-26 23:50:00,
2015-01-26 16:55:00,42.1,28.4,30.10,NE,35,0.0,0.0,58,0.00,CLR,SKC,0.00,WeatherDisplay:10.37,2015-01-26 23:55:00,
2015-01-26 17:00:00,42.1,28.4,30.10,North,4,0.0,0.0,58,0.00,CLR,SKC,0.00,WeatherDisplay:10.37,2015-01-27 00:00:00,
2015-01-26 17:05:00,41.9,28.2,30.10,North,0,0.0,0.0,58,0.00,CLR,SKC,0.00,WeatherDisplay:10.37,2015-01-27 00:05:00,
2015-01-26 17:10:00,39.8,27.4,30.09,NNE,25,0.0,0.0,61,0.00,CLR,SKC,0.00,WeatherDisplay:10.37,2015-01-27 00:10:00,
2015-01-26 17:15:00,39.0,27.9,30.09,East,90,0.0,0.0,64,0.00,CLR,SKC,0.00,WeatherDisplay:10.37,2015-01-27 00:15:00,
2015-01-26 17:20:00,38.4,27.6,30.09,East,90,0.0,0.0,65,0.00,CLR,SKC,0.00,WeatherDisplay:10.37,2015-01-27 00:20:00,
2015-01-26 17:25:00,37.4,27.1,30.09,East,90,0.0,0.0,66,0.00,CLR,SKC,0.00,WeatherDisplay:10.37,2015-01-27 00:25:00,
2015-01-26 17:30:00,37.0,26.0,30.09,East,90,0.0,0.0,64,0.00,CLR,SKC,0.00,WeatherDisplay:10.37,2015-01-27 00:30:00,
2015-01-26 17:35:00,36.5,25.5,30.09,East,90,0.0,0.0,64,0.00,CLR,SKC,0.00,WeatherDisplay:10.37,2015-01-27 00:35:00,
2015-01-26 17:40:00,34.3,23.8,30.09,West,270,0.0,0.0,65,0.00,CLR,SKC,0.00,WeatherDisplay:10.37,2015-01-27 00:40:00,
2015-01-26 17:45:00,34.4,24.6,30.09,West,270,0.0,0.0,67,0.00,CLR,SKC,0.00,WeatherDisplay:10.37,2015-01-27 00:45:00,
2015-01-26 17:50:00,34.7,25.2,30.09,West,270,0.0,0.0,68,0.00,CLR,SKC,0.00,WeatherDisplay:10.37,2015-01-27 00:50:00,
2015-01-26 17:55:00,33.3,23.8,30.09,North,0,0.0,0.0,68,0.00,CLR,SKC,0.00,WeatherDisplay:10.37,2015-01-27 00:55:00,
2015-01-26 18:00:00,33.0,24.3,30.09,NW,320,0.0,0.0,70,0.00,CLR,SKC,0.00,WeatherDisplay:10.37,2015-01-27 01:00:00,
2015-01-26 18:05:00,32.0,23.3,30.09,West,269,0.0,0.0,70,0.00,CLR,SKC,0.00,WeatherDisplay:10.37,2015-01-27 01:05:00,
2015-01-26 18:10:00,30.7,22.4,30.09,South,180,0.0,0.0,71,0.00,CLR,SKC,0.00,WeatherDisplay:10.37,2015-01-27 01:10:00,
2015-01-26 18:15:00,32.2,24.5,30.09,South,180,0.0,0.0,73,0.00,CLR,SKC,0.00,WeatherDisplay:10.37,2015-01-27 01:15:00,
2015-01-26 18:20:00,30.4,23.1,30.09,West,270,0.0,0.0,74,0.00,CLR,SKC,0.00,WeatherDisplay:10.37,2015-01-27 01:20:00,
2015-01-26 18:25:00,28.1,19.6,30.09,West,279,0.0,0.0,70,0.00,CLR,SKC,0.00,WeatherDisplay:10.37,2015-01-27 01:25:00,
2015-01-26 18:30:00,30.5,23.9,30.09,WNW,284,0.0,0.0,76,0.00,CLR,SKC,0.00,WeatherDisplay:10.37,2015-01-27 01:30:00,
2015-01-26 18:35:00,29.8,23.5,30.09,West,270,0.0,0.0,77,0.00,CLR,SKC,0.00,WeatherDisplay:10.37,2015-01-27 01:35:00,
2015-01-26 18:40:00,31.2,24.8,30.10,West,264,0.0,0.0,77,0.00,CLR,SKC,0.00,WeatherDisplay:10.37,2015-01-27 01:40:00,
2015-01-26 18:45:00,29.5,23.2,30.09,WNW,286,0.0,0.0,77,0.00,CLR,SKC,0.00,WeatherDisplay:10.37,2015-01-27 01:45:00,
2015-01-26 18:50:00,30.0,24.0,30.09,West,270,0.0,0.0,78,0.00,CLR,SKC,0.00,WeatherDisplay:10.37,2015-01-27 01:50:00,
2015-01-26 18:55:00,30.3,23.9,30.09,WSW,256,0.0,0.0,77,0.00,CLR,SKC,0.00,WeatherDisplay:10.37,2015-01-27 01:55:00,
2015-01-26 19:00:00,27.6,20.1,30.09,SW,231,0.0,0.0,73,0.00,CLR,SKC,0.00,WeatherDisplay:10.37,2015-01-27 02:00:00,
2015-01-26 19:05:00,27.3,19.8,30.09,South,180,0.0,0.0,73,0.00,CLR,SKC,0.00,WeatherDisplay:10.37,2015-01-27 02:05:00,
2015-01-26 19:10:00,27.4,19.9,30.10,SSW,205,0.0,0.0,73,0.00,CLR,SKC,0.00,WeatherDisplay:10.37,2015-01-27 02:10:00,
2015-01-26 19:15:00,27.7,20.5,30.09,West,270,0.0,0.0,74,0.00,CLR,SKC,0.00,WeatherDisplay:10.37,2015-01-27 02:15:00,
2015-01-26 19:20:00,30.0,24.6,30.09,West,270,0.0,0.0,80,0.00,CLR,SKC,0.00,WeatherDisplay:10.37,2015-01-27 02:20:00,
2015-01-26 19:25:00,28.6,22.9,30.10,South,180,0.0,0.0,79,0.00,CLR,SKC,0.00,WeatherDisplay:10.37,2015-01-27 02:25:00,
2015-01-26 19:30:00,28.8,23.4,30.10,West,270,0.0,0.0,80,0.00,CLR,SKC,0.00,WeatherDisplay:10.37,2015-01-27 02:30:00,
2015-01-26 19:35:00,26.9,19.7,30.09,West,262,0.0,0.0,74,0.00,CLR,SKC,0.00,WeatherDisplay:10.37,2015-01-27 02:35:00,
2015-01-26 19:40:00,28.5,22.9,30.10,West,270,0.0,0.0,79,0.00,CLR,SKC,0.00,WeatherDisplay:10.37,2015-01-27 02:40:00,
2015-01-26 19:45:00,29.8,24.7,30.09,West,270,0.0,0.0,81,0.00,CLR,SKC,0.00,WeatherDisplay:10.37,2015-01-27 02:45:00,
2015-01-26 19:50:00,28.5,23.1,30.09,West,270,0.0,0.0,80,0.00,CLR,SKC,0.00,WeatherDisplay:10.37,2015-01-27 02:50:00,
2015-01-26 19:55:00,27.4,20.8,30.09,WSW,246,0.0,0.0,76,0.00,CLR,SKC,0.00,WeatherDisplay:10.37,2015-01-27 02:55:00,
2015-01-26 20:00:00,26.2,19.4,30.09,SW,225,0.0,0.0,75,0.00,CLR,SKC,0.00,WeatherDisplay:10.37,2015-01-27 03:00:00,
2015-01-26 20:05:00,26.1,19.3,30.09,WSW,247,0.0,0.0,75,0.00,CLR,SKC,0.00,WeatherDisplay:10.37,2015-01-27 03:05:00,
2015-01-26 20:10:00,25.9,19.7,30.09,West,270,0.0,0.0,77,0.00,CLR,SKC,0.00,WeatherDisplay:10.37,2015-01-27 03:10:00,
2015-01-26 20:15:00,27.1,20.9,30.09,West,270,0.0,0.0,77,0.00,CLR,SKC,0.00,WeatherDisplay:10.37,2015-01-27 03:15:00,
2015-01-26 20:20:00,29.0,24.5,30.09,West,270,0.0,0.0,83,0.00,CLR,SKC,0.00,WeatherDisplay:10.37,2015-01-27 03:20:00,
2015-01-26 20:25:00,27.5,21.5,30.09,South,180,0.0,0.0,78,0.00,CLR,SKC,0.00,WeatherDisplay:10.37,2015-01-27 03:25:00,
2015-01-26 20:30:00,27.1,21.2,30.09,WSW,238,0.0,0.0,78,0.00,CLR,SKC,0.00,WeatherDisplay:10.37,2015-01-27 03:30:00,
2015-01-26 20:35:00,27.9,21.9,30.08,SW,225,0.0,0.0,78,0.00,CLR,SKC,0.00,WeatherDisplay:10.37,2015-01-27 03:35:00,
2015-01-26 20:40:00,26.2,20.3,30.08,SW,225,0.0,0.0,78,0.00,CLR,SKC,0.00,WeatherDisplay:10.37,2015-01-27 03:40:00,
2015-01-26 20:45:00,26.4,20.5,30.09,SW,235,0.0,0.0,78,0.00,CLR,SKC,0.00,WeatherDisplay:10.37,2015-01-27 03:45:00,
2015-01-26 20:50:00,28.3,22.9,30.08,West,281,0.0,0.0,80,0.00,CLR,SKC,0.00,WeatherDisplay:10.37,2015-01-27 03:50:00,
2015-01-26 20:55:00,27.1,21.2,30.08,West,270,0.0,0.0,78,0.00,CLR,SKC,0.00,WeatherDisplay:10.37,2015-01-27 03:55:00,
2015-01-26 21:00:00,27.1,21.1,30.09,West,270,0.0,0.0,78,0.00,CLR,SKC,0.00,WeatherDisplay:10.37,2015-01-27 04:00:00,
2015-01-26 21:05:00,27.0,21.0,30.08,West,270,0.0,0.0,78,0.00,CLR,SKC,0.00,WeatherDisplay:10.37,2015-01-27 04:05:00,
2015-01-26 21:10:00,27.7,22.0,30.08,SW,225,0.0,0.0,79,0.00,CLR,SKC,0.00,WeatherDisplay:10.37,2015-01-27 04:10:00,
2015-01-26 21:15:00,28.7,24.5,30.08,West,263,0.0,0.0,84,0.00,CLR,SKC,0.00,WeatherDisplay:10.37,2015-01-27 04:15:00,
2015-01-26 21:20:00,26.7,21.1,30.08,West,267,0.0,0.0,79,0.00,CLR,SKC,0.00,WeatherDisplay:10.37,2015-01-27 04:20:00,
2015-01-26 21:25:00,27.7,22.0,30.08,NW,315,0.0,0.0,79,0.00,CLR,SKC,0.00,WeatherDisplay:10.37,2015-01-27 04:25:00,